sensor_id;sensor_type;location;lat;lon;timestamp;P1;durP1;ratioP1;P2;durP2;ratioP2
72369;SDS011;60343;-32.030;115.880;2023-02-25T00:00:19;4.93;;;0.50;;
72369;SDS011;60343;-32.030;115.880;2023-02-25T00:02:56;2.65;;;0.50;;
72369;SDS011;60343;-32.030;115.880;2023-02-25T00:05:37;4.22;;;0.60;;
72369;SDS011;60343;-32.030;115.880;2023-02-25T00:08:24;4.35;;;0.40;;
72369;SDS011;60343;-32.030;115.880;2023-02-25T00:10:59;4.65;;;0.50;;
72369;SDS011;60343;-32.030;115.880;2023-02-25T00:13:34;2.75;;;0.43;;
72369;SDS011;60343;-32.030;115.880;2023-02-25T00:16:11;3.20;;;0.57;;
72369;SDS011;60343;-32.030;115.880;2023-02-25T00:18:46;2.67;;;0.50;;
72369;SDS011;60343;-32.030;115.880;2023-02-25T00:21:24;3.85;;;0.65;;
72369;SDS011;60343;-32.030;115.880;2023-02-25T00:24:05;3.75;;;0.57;;
72369;SDS011;60343;-32.030;115.880;2023-02-25T00:26:40;4.88;;;0.40;;
72369;SDS011;60343;-32.030;115.880;2023-02-25T00:29:15;5.05;;;0.70;;
72369;SDS011;60343;-32.030;115.880;2023-02-25T00:31:50;2.72;;;0.30;;
72369;SDS011;60343;-32.030;115.880;2023-02-25T00:34:24;4.30;;;0.52;;
72369;SDS011;60343;-32.030;115.880;2023-02-25T00:36:59;5.72;;;0.70;;
72369;SDS011;60343;-32.030;115.880;2023-02-25T00:39:39;6.32;;;0.93;;
72369;SDS011;60343;-32.030;115.880;2023-02-25T00:42:14;10.45;;;0.70;;
72369;SDS011;60343;-32.030;115.880;2023-02-25T00:44:50;4.80;;;0.50;;
72369;SDS011;60343;-32.030;115.880;2023-02-25T00:47:25;3.25;;;0.60;;
72369;SDS011;60343;-32.030;115.880;2023-02-25T00:49:59;2.45;;;0.40;;
72369;SDS011;60343;-32.030;115.880;2023-02-25T00:52:34;3.95;;;0.50;;
72369;SDS011;60343;-32.030;115.880;2023-02-25T00:55:17;3.55;;;0.43;;
72369;SDS011;60343;-32.030;115.880;2023-02-25T00:57:58;3.63;;;0.35;;
72369;SDS011;60343;-32.030;115.880;2023-02-25T01:00:33;3.95;;;0.50;;
72369;SDS011;60343;-32.030;115.880;2023-02-25T01:03:10;4.32;;;0.70;;
72369;SDS011;60343;-32.030;115.880;2023-02-25T01:05:44;3.42;;;0.50;;
72369;SDS011;60343;-32.030;115.880;2023-02-25T01:08:20;2.65;;;0.40;;
72369;SDS011;60343;-32.030;115.880;2023-02-25T01:11:00;5.53;;;0.50;;
72369;SDS011;60343;-32.030;115.880;2023-02-25T01:13:46;3.28;;;0.30;;
72369;SDS011;60343;-32.030;115.880;2023-02-25T01:16:21;6.47;;;0.60;;
72369;SDS011;60343;-32.030;115.880;2023-02-25T01:18:58;5.55;;;0.50;;
72369;SDS011;60343;-32.030;115.880;2023-02-25T01:21:34;2.85;;;0.43;;
72369;SDS011;60343;-32.030;115.880;2023-02-25T01:24:13;3.80;;;0.57;;
72369;SDS011;60343;-32.030;115.880;2023-02-25T01:29:30;2.30;;;0.30;;
72369;SDS011;60343;-32.030;115.880;2023-02-25T01:32:06;2.90;;;0.40;;
72369;SDS011;60343;-32.030;115.880;2023-02-25T01:34:43;3.78;;;0.30;;
72369;SDS011;60343;-32.030;115.880;2023-02-25T01:37:17;3.22;;;0.45;;
72369;SDS011;60343;-32.030;115.880;2023-02-25T01:39:52;3.13;;;0.55;;
72369;SDS011;60343;-32.030;115.880;2023-02-25T01:42:32;3.42;;;0.57;;
72369;SDS011;60343;-32.030;115.880;2023-02-25T01:45:22;3.65;;;0.50;;
72369;SDS011;60343;-32.030;115.880;2023-02-25T01:48:04;3.13;;;0.40;;
72369;SDS011;60343;-32.030;115.880;2023-02-25T01:50:44;5.93;;;0.55;;
72369;SDS011;60343;-32.030;115.880;2023-02-25T01:53:22;5.40;;;0.60;;
72369;SDS011;60343;-32.030;115.880;2023-02-25T01:55:59;6.13;;;0.80;;
72369;SDS011;60343;-32.030;115.880;2023-02-25T01:58:41;2.80;;;0.43;;
72369;SDS011;60343;-32.030;115.880;2023-02-25T02:01:16;6.85;;;0.70;;
72369;SDS011;60343;-32.030;115.880;2023-02-25T02:03:54;3.92;;;0.50;;
72369;SDS011;60343;-32.030;115.880;2023-02-25T02:06:30;3.88;;;0.50;;
72369;SDS011;60343;-32.030;115.880;2023-02-25T02:09:09;3.25;;;0.55;;
72369;SDS011;60343;-32.030;115.880;2023-02-25T02:11:45;3.75;;;0.50;;
72369;SDS011;60343;-32.030;115.880;2023-02-25T02:14:26;5.65;;;0.57;;
72369;SDS011;60343;-32.030;115.880;2023-02-25T02:17:07;3.97;;;0.57;;
72369;SDS011;60343;-32.030;115.880;2023-02-25T02:20:02;4.25;;;0.47;;
72369;SDS011;60343;-32.030;115.880;2023-02-25T02:22:48;5.10;;;0.50;;
72369;SDS011;60343;-32.030;115.880;2023-02-25T02:25:40;1.90;;;0.40;;
72369;SDS011;60343;-32.030;115.880;2023-02-25T02:28:38;4.25;;;0.50;;
72369;SDS011;60343;-32.030;115.880;2023-02-25T02:31:46;3.22;;;0.50;;
72369;SDS011;60343;-32.030;115.880;2023-02-25T02:34:29;4.85;;;0.70;;
72369;SDS011;60343;-32.030;115.880;2023-02-25T02:39:52;3.75;;;0.40;;
72369;SDS011;60343;-32.030;115.880;2023-02-25T02:42:36;5.90;;;0.70;;
72369;SDS011;60343;-32.030;115.880;2023-02-25T02:45:17;3.50;;;0.43;;
72369;SDS011;60343;-32.030;115.880;2023-02-25T02:48:00;3.97;;;0.60;;
72369;SDS011;60343;-32.030;115.880;2023-02-25T02:50:38;3.75;;;0.47;;
72369;SDS011;60343;-32.030;115.880;2023-02-25T02:53:16;4.03;;;0.60;;
72369;SDS011;60343;-32.030;115.880;2023-02-25T02:55:56;2.63;;;0.50;;
72369;SDS011;60343;-32.030;115.880;2023-02-25T02:58:35;4.25;;;0.60;;
72369;SDS011;60343;-32.030;115.880;2023-02-25T03:01:14;4.10;;;0.50;;
72369;SDS011;60343;-32.030;115.880;2023-02-25T03:03:57;2.78;;;0.40;;
72369;SDS011;60343;-32.030;115.880;2023-02-25T03:06:35;5.00;;;0.50;;
72369;SDS011;60343;-32.030;115.880;2023-02-25T03:09:13;4.82;;;0.50;;
72369;SDS011;60343;-32.030;115.880;2023-02-25T03:14:24;2.80;;;0.45;;
72369;SDS011;60343;-32.030;115.880;2023-02-25T03:16:59;8.27;;;0.60;;
72369;SDS011;60343;-32.030;115.880;2023-02-25T03:19:45;4.07;;;0.50;;
72369;SDS011;60343;-32.030;115.880;2023-02-25T03:22:25;2.08;;;0.50;;
72369;SDS011;60343;-32.030;115.880;2023-02-25T03:25:04;6.18;;;0.50;;
72369;SDS011;60343;-32.030;115.880;2023-02-25T03:27:42;4.85;;;0.60;;
72369;SDS011;60343;-32.030;115.880;2023-02-25T03:30:20;2.88;;;0.50;;
72369;SDS011;60343;-32.030;115.880;2023-02-25T03:33:02;4.10;;;0.63;;
72369;SDS011;60343;-32.030;115.880;2023-02-25T03:35:46;4.40;;;0.43;;
72369;SDS011;60343;-32.030;115.880;2023-02-25T03:38:24;3.88;;;0.50;;
72369;SDS011;60343;-32.030;115.880;2023-02-25T03:41:02;3.35;;;0.40;;
72369;SDS011;60343;-32.030;115.880;2023-02-25T03:43:39;5.25;;;0.50;;
72369;SDS011;60343;-32.030;115.880;2023-02-25T03:46:17;3.35;;;0.45;;
72369;SDS011;60343;-32.030;115.880;2023-02-25T03:48:54;3.30;;;0.50;;
72369;SDS011;60343;-32.030;115.880;2023-02-25T03:51:35;3.65;;;0.40;;
72369;SDS011;60343;-32.030;115.880;2023-02-25T03:54:13;4.22;;;0.50;;
72369;SDS011;60343;-32.030;115.880;2023-02-25T03:56:49;4.47;;;0.60;;
72369;SDS011;60343;-32.030;115.880;2023-02-25T03:59:24;3.33;;;0.45;;
72369;SDS011;60343;-32.030;115.880;2023-02-25T04:01:58;4.80;;;0.50;;
72369;SDS011;60343;-32.030;115.880;2023-02-25T04:04:35;3.50;;;0.50;;
72369;SDS011;60343;-32.030;115.880;2023-02-25T04:07:15;6.05;;;0.57;;
72369;SDS011;60343;-32.030;115.880;2023-02-25T04:09:49;5.95;;;0.65;;
72369;SDS011;60343;-32.030;115.880;2023-02-25T04:12:26;4.38;;;0.50;;
72369;SDS011;60343;-32.030;115.880;2023-02-25T04:15:00;4.22;;;0.40;;
72369;SDS011;60343;-32.030;115.880;2023-02-25T04:17:35;4.43;;;0.63;;
72369;SDS011;60343;-32.030;115.880;2023-02-25T04:20:10;3.63;;;0.40;;
72369;SDS011;60343;-32.030;115.880;2023-02-25T04:22:51;4.28;;;0.57;;
72369;SDS011;60343;-32.030;115.880;2023-02-25T04:25:26;5.28;;;0.50;;
72369;SDS011;60343;-32.030;115.880;2023-02-25T04:28:02;3.70;;;0.50;;
72369;SDS011;60343;-32.030;115.880;2023-02-25T04:30:37;5.35;;;0.68;;
72369;SDS011;60343;-32.030;115.880;2023-02-25T04:33:11;3.20;;;0.43;;
72369;SDS011;60343;-32.030;115.880;2023-02-25T04:35:46;4.35;;;0.40;;
72369;SDS011;60343;-32.030;115.880;2023-02-25T04:38:26;1.85;;;0.30;;
72369;SDS011;60343;-32.030;115.880;2023-02-25T04:41:01;4.97;;;0.55;;
72369;SDS011;60343;-32.030;115.880;2023-02-25T04:43:37;2.40;;;0.38;;
72369;SDS011;60343;-32.030;115.880;2023-02-25T04:46:11;4.40;;;0.40;;
72369;SDS011;60343;-32.030;115.880;2023-02-25T04:48:46;5.28;;;0.50;;
72369;SDS011;60343;-32.030;115.880;2023-02-25T04:51:21;4.38;;;0.63;;
72369;SDS011;60343;-32.030;115.880;2023-02-25T04:54:01;4.05;;;0.68;;
72369;SDS011;60343;-32.030;115.880;2023-02-25T04:56:36;6.80;;;0.55;;
72369;SDS011;60343;-32.030;115.880;2023-02-25T04:59:11;5.68;;;0.70;;
72369;SDS011;60343;-32.030;115.880;2023-02-25T05:01:46;2.65;;;0.40;;
72369;SDS011;60343;-32.030;115.880;2023-02-25T05:04:21;5.63;;;0.57;;
72369;SDS011;60343;-32.030;115.880;2023-02-25T05:06:55;4.28;;;0.43;;
72369;SDS011;60343;-32.030;115.880;2023-02-25T05:09:36;1.58;;;0.30;;
72369;SDS011;60343;-32.030;115.880;2023-02-25T05:12:10;2.47;;;0.40;;
72369;SDS011;60343;-32.030;115.880;2023-02-25T05:14:45;5.53;;;0.70;;
72369;SDS011;60343;-32.030;115.880;2023-02-25T05:17:21;2.30;;;0.35;;
72369;SDS011;60343;-32.030;115.880;2023-02-25T05:19:55;3.05;;;0.32;;
72369;SDS011;60343;-32.030;115.880;2023-02-25T05:22:30;3.40;;;0.40;;
72369;SDS011;60343;-32.030;115.880;2023-02-25T05:25:11;2.63;;;0.50;;
72369;SDS011;60343;-32.030;115.880;2023-02-25T05:27:46;3.55;;;0.40;;
72369;SDS011;60343;-32.030;115.880;2023-02-25T05:30:20;2.58;;;0.30;;
72369;SDS011;60343;-32.030;115.880;2023-02-25T05:32:55;3.97;;;0.60;;
72369;SDS011;60343;-32.030;115.880;2023-02-25T05:35:29;2.50;;;0.40;;
72369;SDS011;60343;-32.030;115.880;2023-02-25T05:38:04;2.35;;;0.40;;
72369;SDS011;60343;-32.030;115.880;2023-02-25T05:40:44;2.20;;;0.30;;
72369;SDS011;60343;-32.030;115.880;2023-02-25T05:43:18;3.08;;;0.30;;
72369;SDS011;60343;-32.030;115.880;2023-02-25T05:45:53;4.63;;;0.55;;
72369;SDS011;60343;-32.030;115.880;2023-02-25T05:48:30;2.75;;;0.38;;
72369;SDS011;60343;-32.030;115.880;2023-02-25T05:51:06;2.22;;;0.30;;
72369;SDS011;60343;-32.030;115.880;2023-02-25T05:53:43;4.40;;;0.80;;
72369;SDS011;60343;-32.030;115.880;2023-02-25T05:56:23;5.65;;;0.85;;
72369;SDS011;60343;-32.030;115.880;2023-02-25T05:58:58;3.35;;;0.40;;
72369;SDS011;60343;-32.030;115.880;2023-02-25T06:01:33;2.47;;;0.40;;
72369;SDS011;60343;-32.030;115.880;2023-02-25T06:04:07;2.05;;;0.40;;
72369;SDS011;60343;-32.030;115.880;2023-02-25T06:06:42;6.35;;;0.57;;
72369;SDS011;60343;-32.030;115.880;2023-02-25T06:09:17;3.90;;;0.60;;
72369;SDS011;60343;-32.030;115.880;2023-02-25T06:11:59;3.90;;;0.40;;
72369;SDS011;60343;-32.030;115.880;2023-02-25T06:14:33;3.08;;;0.25;;
72369;SDS011;60343;-32.030;115.880;2023-02-25T06:17:08;2.70;;;0.40;;
72369;SDS011;60343;-32.030;115.880;2023-02-25T06:19:42;4.78;;;0.43;;
72369;SDS011;60343;-32.030;115.880;2023-02-25T06:22:17;4.20;;;0.52;;
72369;SDS011;60343;-32.030;115.880;2023-02-25T06:24:53;3.63;;;0.40;;
72369;SDS011;60343;-32.030;115.880;2023-02-25T06:27:33;3.95;;;0.65;;
72369;SDS011;60343;-32.030;115.880;2023-02-25T06:30:08;3.42;;;0.50;;
72369;SDS011;60343;-32.030;115.880;2023-02-25T06:32:43;5.57;;;0.40;;
72369;SDS011;60343;-32.030;115.880;2023-02-25T06:35:18;2.22;;;0.30;;
72369;SDS011;60343;-32.030;115.880;2023-02-25T06:37:54;2.25;;;0.32;;
72369;SDS011;60343;-32.030;115.880;2023-02-25T06:40:29;1.92;;;0.40;;
72369;SDS011;60343;-32.030;115.880;2023-02-25T06:43:10;4.03;;;0.60;;
72369;SDS011;60343;-32.030;115.880;2023-02-25T06:45:45;2.92;;;0.50;;
72369;SDS011;60343;-32.030;115.880;2023-02-25T06:48:19;3.22;;;0.50;;
72369;SDS011;60343;-32.030;115.880;2023-02-25T06:50:53;3.90;;;0.40;;
72369;SDS011;60343;-32.030;115.880;2023-02-25T06:53:29;3.42;;;0.40;;
72369;SDS011;60343;-32.030;115.880;2023-02-25T06:56:04;2.83;;;0.50;;
72369;SDS011;60343;-32.030;115.880;2023-02-25T06:58:45;2.65;;;0.30;;
72369;SDS011;60343;-32.030;115.880;2023-02-25T07:01:20;2.60;;;0.65;;
72369;SDS011;60343;-32.030;115.880;2023-02-25T07:03:55;4.55;;;0.50;;
72369;SDS011;60343;-32.030;115.880;2023-02-25T07:06:30;3.25;;;0.30;;
72369;SDS011;60343;-32.030;115.880;2023-02-25T07:09:05;4.32;;;0.30;;
72369;SDS011;60343;-32.030;115.880;2023-02-25T07:11:40;2.10;;;0.32;;
72369;SDS011;60343;-32.030;115.880;2023-02-25T07:14:21;4.82;;;0.50;;
72369;SDS011;60343;-32.030;115.880;2023-02-25T07:16:56;3.35;;;0.43;;
72369;SDS011;60343;-32.030;115.880;2023-02-25T07:19:30;2.45;;;0.30;;
72369;SDS011;60343;-32.030;115.880;2023-02-25T07:22:05;2.78;;;0.40;;
72369;SDS011;60343;-32.030;115.880;2023-02-25T07:24:40;2.78;;;0.38;;
72369;SDS011;60343;-32.030;115.880;2023-02-25T07:27:15;4.20;;;0.70;;
72369;SDS011;60343;-32.030;115.880;2023-02-25T07:29:55;3.33;;;0.47;;
72369;SDS011;60343;-32.030;115.880;2023-02-25T07:32:30;3.03;;;0.30;;
72369;SDS011;60343;-32.030;115.880;2023-02-25T07:35:05;1.77;;;0.30;;
72369;SDS011;60343;-32.030;115.880;2023-02-25T07:37:41;3.13;;;0.35;;
72369;SDS011;60343;-32.030;115.880;2023-02-25T07:40:16;3.85;;;0.40;;
72369;SDS011;60343;-32.030;115.880;2023-02-25T07:42:51;4.93;;;0.45;;
72369;SDS011;60343;-32.030;115.880;2023-02-25T07:45:31;2.88;;;0.50;;
72369;SDS011;60343;-32.030;115.880;2023-02-25T07:48:06;1.50;;;0.30;;
72369;SDS011;60343;-32.030;115.880;2023-02-25T07:50:41;3.35;;;0.40;;
72369;SDS011;60343;-32.030;115.880;2023-02-25T07:53:16;3.38;;;0.40;;
72369;SDS011;60343;-32.030;115.880;2023-02-25T07:55:51;2.72;;;0.30;;
72369;SDS011;60343;-32.030;115.880;2023-02-25T07:58:26;2.58;;;0.40;;
72369;SDS011;60343;-32.030;115.880;2023-02-25T08:01:06;2.60;;;0.30;;
72369;SDS011;60343;-32.030;115.880;2023-02-25T08:03:41;3.72;;;0.40;;
72369;SDS011;60343;-32.030;115.880;2023-02-25T08:06:17;2.47;;;0.30;;
72369;SDS011;60343;-32.030;115.880;2023-02-25T08:08:52;6.00;;;0.52;;
72369;SDS011;60343;-32.030;115.880;2023-02-25T08:11:29;2.78;;;0.32;;
72369;SDS011;60343;-32.030;115.880;2023-02-25T08:14:04;3.17;;;0.50;;
72369;SDS011;60343;-32.030;115.880;2023-02-25T08:16:44;2.50;;;0.38;;
72369;SDS011;60343;-32.030;115.880;2023-02-25T08:19:19;3.85;;;0.43;;
72369;SDS011;60343;-32.030;115.880;2023-02-25T08:21:54;4.75;;;0.30;;
72369;SDS011;60343;-32.030;115.880;2023-02-25T08:24:30;6.68;;;0.65;;
72369;SDS011;60343;-32.030;115.880;2023-02-25T08:27:04;5.20;;;0.70;;
72369;SDS011;60343;-32.030;115.880;2023-02-25T08:29:40;6.43;;;0.82;;
72369;SDS011;60343;-32.030;115.880;2023-02-25T08:32:20;3.53;;;0.60;;
72369;SDS011;60343;-32.030;115.880;2023-02-25T08:34:56;7.30;;;0.85;;
72369;SDS011;60343;-32.030;115.880;2023-02-25T08:37:30;5.57;;;0.50;;
72369;SDS011;60343;-32.030;115.880;2023-02-25T08:40:06;4.22;;;0.73;;
72369;SDS011;60343;-32.030;115.880;2023-02-25T08:42:43;8.13;;;0.65;;
72369;SDS011;60343;-32.030;115.880;2023-02-25T08:45:18;8.60;;;0.80;;
72369;SDS011;60343;-32.030;115.880;2023-02-25T08:47:59;5.28;;;0.70;;
72369;SDS011;60343;-32.030;115.880;2023-02-25T08:50:35;5.88;;;0.45;;
72369;SDS011;60343;-32.030;115.880;2023-02-25T08:53:09;5.90;;;0.80;;
72369;SDS011;60343;-32.030;115.880;2023-02-25T08:55:44;5.00;;;0.50;;
72369;SDS011;60343;-32.030;115.880;2023-02-25T08:58:18;4.07;;;0.50;;
72369;SDS011;60343;-32.030;115.880;2023-02-25T09:00:53;5.60;;;0.65;;
72369;SDS011;60343;-32.030;115.880;2023-02-25T09:03:34;8.10;;;0.70;;
72369;SDS011;60343;-32.030;115.880;2023-02-25T09:06:16;5.47;;;0.60;;
72369;SDS011;60343;-32.030;115.880;2023-02-25T09:08:53;7.40;;;0.50;;
72369;SDS011;60343;-32.030;115.880;2023-02-25T09:11:28;5.60;;;1.10;;
72369;SDS011;60343;-32.030;115.880;2023-02-25T09:14:04;3.67;;;0.50;;
72369;SDS011;60343;-32.030;115.880;2023-02-25T09:16:39;4.28;;;0.70;;
72369;SDS011;60343;-32.030;115.880;2023-02-25T09:19:19;6.03;;;0.70;;
72369;SDS011;60343;-32.030;115.880;2023-02-25T09:21:54;3.47;;;0.40;;
72369;SDS011;60343;-32.030;115.880;2023-02-25T09:24:28;5.97;;;0.65;;
72369;SDS011;60343;-32.030;115.880;2023-02-25T09:27:04;4.32;;;0.68;;
72369;SDS011;60343;-32.030;115.880;2023-02-25T09:29:39;9.77;;;0.80;;
72369;SDS011;60343;-32.030;115.880;2023-02-25T09:32:15;3.88;;;0.50;;
72369;SDS011;60343;-32.030;115.880;2023-02-25T09:34:56;7.03;;;0.63;;
72369;SDS011;60343;-32.030;115.880;2023-02-25T09:37:32;6.93;;;1.15;;
72369;SDS011;60343;-32.030;115.880;2023-02-25T09:40:08;5.03;;;0.68;;
72369;SDS011;60343;-32.030;115.880;2023-02-25T09:42:51;4.75;;;0.68;;
72369;SDS011;60343;-32.030;115.880;2023-02-25T09:45:35;4.38;;;0.52;;
72369;SDS011;60343;-32.030;115.880;2023-02-25T09:48:13;5.65;;;0.63;;
72369;SDS011;60343;-32.030;115.880;2023-02-25T09:50:58;6.53;;;0.90;;
72369;SDS011;60343;-32.030;115.880;2023-02-25T09:53:43;9.60;;;0.80;;
72369;SDS011;60343;-32.030;115.880;2023-02-25T09:56:21;4.65;;;0.70;;
72369;SDS011;60343;-32.030;115.880;2023-02-25T09:58:59;4.47;;;0.60;;
72369;SDS011;60343;-32.030;115.880;2023-02-25T10:01:34;4.25;;;0.60;;
72369;SDS011;60343;-32.030;115.880;2023-02-25T10:04:13;6.28;;;0.75;;
72369;SDS011;60343;-32.030;115.880;2023-02-25T10:07:01;3.22;;;0.63;;
72369;SDS011;60343;-32.030;115.880;2023-02-25T10:09:45;3.38;;;0.70;;
72369;SDS011;60343;-32.030;115.880;2023-02-25T10:12:26;4.80;;;0.63;;
72369;SDS011;60343;-32.030;115.880;2023-02-25T10:15:21;6.85;;;0.68;;
72369;SDS011;60343;-32.030;115.880;2023-02-25T10:18:09;11.88;;;1.75;;
72369;SDS011;60343;-32.030;115.880;2023-02-25T10:20:59;4.82;;;0.80;;
72369;SDS011;60343;-32.030;115.880;2023-02-25T10:23:53;8.23;;;0.90;;
72369;SDS011;60343;-32.030;115.880;2023-02-25T10:26:36;7.70;;;0.93;;
72369;SDS011;60343;-32.030;115.880;2023-02-25T10:29:18;4.85;;;0.70;;
72369;SDS011;60343;-32.030;115.880;2023-02-25T10:31:59;6.45;;;1.05;;
72369;SDS011;60343;-32.030;115.880;2023-02-25T10:34:47;6.88;;;1.00;;
72369;SDS011;60343;-32.030;115.880;2023-02-25T10:37:24;5.22;;;1.15;;
72369;SDS011;60343;-32.030;115.880;2023-02-25T10:40:12;7.43;;;1.00;;
72369;SDS011;60343;-32.030;115.880;2023-02-25T10:42:49;5.93;;;0.90;;
72369;SDS011;60343;-32.030;115.880;2023-02-25T10:45:26;4.50;;;0.68;;
72369;SDS011;60343;-32.030;115.880;2023-02-25T10:48:05;8.60;;;0.82;;
72369;SDS011;60343;-32.030;115.880;2023-02-25T10:50:48;4.38;;;0.93;;
72369;SDS011;60343;-32.030;115.880;2023-02-25T10:53:37;7.90;;;1.15;;
72369;SDS011;60343;-32.030;115.880;2023-02-25T10:56:18;6.30;;;0.85;;
72369;SDS011;60343;-32.030;115.880;2023-02-25T10:58:59;14.60;;;0.95;;
72369;SDS011;60343;-32.030;115.880;2023-02-25T11:01:39;6.32;;;1.08;;
72369;SDS011;60343;-32.030;115.880;2023-02-25T11:04:17;3.78;;;0.77;;
72369;SDS011;60343;-32.030;115.880;2023-02-25T11:06:54;9.60;;;0.85;;
72369;SDS011;60343;-32.030;115.880;2023-02-25T11:09:32;5.80;;;0.68;;
72369;SDS011;60343;-32.030;115.880;2023-02-25T11:12:16;5.30;;;0.80;;
72369;SDS011;60343;-32.030;115.880;2023-02-25T11:14:51;6.03;;;0.85;;
72369;SDS011;60343;-32.030;115.880;2023-02-25T11:17:26;8.38;;;1.00;;
72369;SDS011;60343;-32.030;115.880;2023-02-25T11:20:01;6.55;;;0.90;;
72369;SDS011;60343;-32.030;115.880;2023-02-25T11:22:37;4.75;;;0.90;;
72369;SDS011;60343;-32.030;115.880;2023-02-25T11:25:14;10.77;;;1.00;;
72369;SDS011;60343;-32.030;115.880;2023-02-25T11:27:57;6.13;;;1.00;;
72369;SDS011;60343;-32.030;115.880;2023-02-25T11:30:34;10.45;;;1.15;;
72369;SDS011;60343;-32.030;115.880;2023-02-25T11:33:14;4.63;;;0.98;;
72369;SDS011;60343;-32.030;115.880;2023-02-25T11:35:56;8.68;;;1.00;;
72369;SDS011;60343;-32.030;115.880;2023-02-25T11:38:32;10.02;;;1.05;;
72369;SDS011;60343;-32.030;115.880;2023-02-25T11:41:13;8.70;;;1.20;;
72369;SDS011;60343;-32.030;115.880;2023-02-25T11:43:55;8.85;;;1.30;;
72369;SDS011;60343;-32.030;115.880;2023-02-25T11:46:30;6.95;;;1.17;;
72369;SDS011;60343;-32.030;115.880;2023-02-25T11:49:10;5.78;;;1.13;;
72369;SDS011;60343;-32.030;115.880;2023-02-25T11:51:50;20.67;;;1.30;;
72369;SDS011;60343;-32.030;115.880;2023-02-25T11:54:32;11.13;;;1.50;;
72369;SDS011;60343;-32.030;115.880;2023-02-25T11:57:14;9.23;;;1.48;;
72369;SDS011;60343;-32.030;115.880;2023-02-25T12:00:08;8.50;;;1.30;;
72369;SDS011;60343;-32.030;115.880;2023-02-25T12:02:55;8.25;;;1.20;;
72369;SDS011;60343;-32.030;115.880;2023-02-25T12:05:55;9.32;;;1.23;;
72369;SDS011;60343;-32.030;115.880;2023-02-25T12:08:45;9.60;;;1.33;;
72369;SDS011;60343;-32.030;115.880;2023-02-25T12:14:44;9.27;;;1.25;;
72369;SDS011;60343;-32.030;115.880;2023-02-25T12:17:51;5.70;;;1.00;;
72369;SDS011;60343;-32.030;115.880;2023-02-25T12:27:21;9.98;;;1.40;;
72369;SDS011;60343;-32.030;115.880;2023-02-25T12:30:34;5.88;;;1.15;;
72369;SDS011;60343;-32.030;115.880;2023-02-25T12:33:44;10.18;;;1.50;;
72369;SDS011;60343;-32.030;115.880;2023-02-25T12:36:43;7.97;;;1.20;;
72369;SDS011;60343;-32.030;115.880;2023-02-25T12:39:44;6.57;;;1.20;;
72369;SDS011;60343;-32.030;115.880;2023-02-25T12:42:30;6.95;;;1.10;;
72369;SDS011;60343;-32.030;115.880;2023-02-25T12:45:22;5.55;;;1.17;;
72369;SDS011;60343;-32.030;115.880;2023-02-25T12:48:27;6.10;;;1.40;;
72369;SDS011;60343;-32.030;115.880;2023-02-25T12:51:36;5.68;;;1.40;;
72369;SDS011;60343;-32.030;115.880;2023-02-25T12:54:26;8.25;;;1.33;;
72369;SDS011;60343;-32.030;115.880;2023-02-25T12:57:26;11.57;;;1.50;;
72369;SDS011;60343;-32.030;115.880;2023-02-25T13:00:27;6.72;;;1.10;;
72369;SDS011;60343;-32.030;115.880;2023-02-25T13:03:21;6.55;;;1.13;;
72369;SDS011;60343;-32.030;115.880;2023-02-25T13:06:25;8.95;;;1.38;;
72369;SDS011;60343;-32.030;115.880;2023-02-25T13:12:28;6.38;;;1.13;;
72369;SDS011;60343;-32.030;115.880;2023-02-25T13:15:19;8.38;;;1.92;;
72369;SDS011;60343;-32.030;115.880;2023-02-25T13:18:08;5.10;;;1.02;;
72369;SDS011;60343;-32.030;115.880;2023-02-25T13:20:54;3.95;;;1.10;;
72369;SDS011;60343;-32.030;115.880;2023-02-25T13:23:53;5.85;;;1.20;;
72369;SDS011;60343;-32.030;115.880;2023-02-25T13:26:53;6.85;;;1.00;;
72369;SDS011;60343;-32.030;115.880;2023-02-25T13:33:06;3.15;;;0.70;;
72369;SDS011;60343;-32.030;115.880;2023-02-25T13:35:51;4.93;;;0.75;;
72369;SDS011;60343;-32.030;115.880;2023-02-25T13:38:37;7.32;;;0.80;;
72369;SDS011;60343;-32.030;115.880;2023-02-25T13:41:40;4.00;;;0.80;;
72369;SDS011;60343;-32.030;115.880;2023-02-25T13:44:40;2.72;;;0.50;;
72369;SDS011;60343;-32.030;115.880;2023-02-25T13:47:38;4.82;;;0.70;;
72369;SDS011;60343;-32.030;115.880;2023-02-25T13:50:23;7.00;;;0.60;;
72369;SDS011;60343;-32.030;115.880;2023-02-25T13:59:52;5.35;;;0.70;;
72369;SDS011;60343;-32.030;115.880;2023-02-25T14:02:53;4.25;;;0.63;;
72369;SDS011;60343;-32.030;115.880;2023-02-25T14:05:47;8.32;;;0.98;;
72369;SDS011;60343;-32.030;115.880;2023-02-25T14:08:42;7.05;;;0.60;;
72369;SDS011;60343;-32.030;115.880;2023-02-25T14:11:39;6.75;;;0.57;;
72369;SDS011;60343;-32.030;115.880;2023-02-25T14:14:31;4.40;;;0.50;;
72369;SDS011;60343;-32.030;115.880;2023-02-25T14:17:28;4.32;;;0.50;;
72369;SDS011;60343;-32.030;115.880;2023-02-25T14:20:19;7.20;;;0.60;;
72369;SDS011;60343;-32.030;115.880;2023-02-25T14:23:01;1.38;;;0.43;;
72369;SDS011;60343;-32.030;115.880;2023-02-25T14:25:58;7.30;;;0.70;;
72369;SDS011;60343;-32.030;115.880;2023-02-25T14:28:49;5.38;;;0.95;;
72369;SDS011;60343;-32.030;115.880;2023-02-25T14:31:45;5.18;;;0.80;;
72369;SDS011;60343;-32.030;115.880;2023-02-25T14:34:36;1.83;;;0.73;;
72369;SDS011;60343;-32.030;115.880;2023-02-25T14:37:24;3.92;;;0.50;;
72369;SDS011;60343;-32.030;115.880;2023-02-25T14:40:17;2.03;;;0.43;;
72369;SDS011;60343;-32.030;115.880;2023-02-25T14:43:13;2.33;;;0.50;;
72369;SDS011;60343;-32.030;115.880;2023-02-25T14:46:02;4.05;;;0.80;;
72369;SDS011;60343;-32.030;115.880;2023-02-25T14:48:50;3.08;;;0.45;;
72369;SDS011;60343;-32.030;115.880;2023-02-25T14:57:43;3.25;;;0.38;;
72369;SDS011;60343;-32.030;115.880;2023-02-25T15:00:38;3.72;;;0.45;;
72369;SDS011;60343;-32.030;115.880;2023-02-25T15:03:35;2.53;;;0.30;;
72369;SDS011;60343;-32.030;115.880;2023-02-25T15:06:37;4.25;;;0.30;;
72369;SDS011;60343;-32.030;115.880;2023-02-25T15:09:31;2.00;;;0.40;;
72369;SDS011;60343;-32.030;115.880;2023-02-25T15:12:31;3.13;;;0.50;;
72369;SDS011;60343;-32.030;115.880;2023-02-25T15:15:23;2.47;;;0.50;;
72369;SDS011;60343;-32.030;115.880;2023-02-25T15:21:35;1.83;;;0.40;;
72369;SDS011;60343;-32.030;115.880;2023-02-25T15:30:21;2.42;;;0.40;;
72369;SDS011;60343;-32.030;115.880;2023-02-25T15:35:56;0.98;;;0.40;;
72369;SDS011;60343;-32.030;115.880;2023-02-25T15:38:44;2.88;;;0.50;;
72369;SDS011;60343;-32.030;115.880;2023-02-25T15:44:34;4.32;;;0.50;;
72369;SDS011;60343;-32.030;115.880;2023-02-25T15:47:10;1.33;;;0.40;;
72369;SDS011;60343;-32.030;115.880;2023-02-25T15:50:06;2.80;;;0.57;;
72369;SDS011;60343;-32.030;115.880;2023-02-25T15:52:54;2.55;;;0.30;;
72369;SDS011;60343;-32.030;115.880;2023-02-25T15:55:56;0.98;;;0.30;;
72369;SDS011;60343;-32.030;115.880;2023-02-25T16:06:01;1.67;;;0.30;;
72369;SDS011;60343;-32.030;115.880;2023-02-25T16:08:40;3.88;;;0.47;;
72369;SDS011;60343;-32.030;115.880;2023-02-25T16:11:29;1.73;;;0.30;;
72369;SDS011;60343;-32.030;115.880;2023-02-25T16:14:10;1.58;;;0.20;;
72369;SDS011;60343;-32.030;115.880;2023-02-25T16:16:50;1.58;;;0.40;;
72369;SDS011;60343;-32.030;115.880;2023-02-25T16:19:29;1.05;;;0.30;;
72369;SDS011;60343;-32.030;115.880;2023-02-25T16:22:11;1.67;;;0.32;;
72369;SDS011;60343;-32.030;115.880;2023-02-25T16:24:49;1.25;;;0.10;;
72369;SDS011;60343;-32.030;115.880;2023-02-25T16:27:38;0.57;;;0.10;;